createdAt,value
2023-03-22T06:02:48.890Z,8.43
2023-03-22T06:05:17.476Z,8.73
2023-03-22T06:07:45.404Z,8.52
2023-03-22T06:10:17.146Z,8.85
2023-03-22T06:12:45.139Z,8.52
2023-03-22T06:15:20.973Z,9.40
2023-03-22T06:18:06.529Z,8.43
2023-03-22T06:20:39.632Z,8.05
2023-03-22T06:23:12.943Z,8.48
2023-03-22T06:25:41.476Z,8.23
2023-03-22T06:28:08.879Z,7.78
2023-03-22T06:33:48.900Z,7.80
2023-03-22T06:36:36.532Z,7.47
2023-03-22T06:39:10.949Z,7.82
2023-03-22T06:41:39.129Z,8.30
2023-03-22T06:44:05.941Z,6.93
2023-03-22T06:46:44.830Z,7.67
2023-03-22T06:49:21.815Z,8.05
2023-03-22T06:51:51.923Z,7.25
2023-03-22T06:54:19.903Z,6.88
2023-03-22T06:56:47.225Z,7.35
2023-03-22T06:59:14.637Z,7.07
2023-03-22T07:01:41.703Z,7.72
2023-03-22T07:04:10.574Z,7.30
2023-03-22T07:06:38.747Z,7.18
2023-03-22T07:09:05.762Z,7.00
2023-03-22T07:11:36.102Z,7.40
2023-03-22T07:14:03.825Z,7.50
2023-03-22T07:16:48.948Z,7.57
2023-03-22T07:19:18.502Z,6.63
2023-03-22T07:21:46.152Z,6.68
2023-03-22T07:24:13.881Z,6.90
2023-03-22T07:26:41.593Z,6.15
2023-03-22T07:29:11.428Z,6.50
2023-03-22T07:31:39.831Z,6.78
2023-03-22T07:34:11.848Z,6.60
2023-03-22T07:36:57.370Z,6.85
2023-03-22T07:39:24.973Z,6.72
2023-03-22T07:41:52.573Z,6.97
2023-03-22T07:44:25.345Z,7.45
2023-03-22T07:47:14.952Z,5.78
2023-03-22T07:50:04.986Z,6.22
2023-03-22T07:52:32.859Z,6.65
2023-03-22T07:55:00.125Z,6.68
2023-03-22T07:57:26.707Z,5.85
2023-03-22T07:59:58.216Z,6.47
2023-03-22T08:02:29.999Z,6.50
2023-03-22T08:04:59.441Z,5.90
2023-03-22T08:07:35.549Z,5.78
2023-03-22T08:10:03.964Z,6.07
2023-03-22T08:12:32.503Z,6.45
2023-03-22T08:15:08.139Z,5.43
2023-03-22T08:17:35.376Z,5.53
2023-03-22T08:20:09.206Z,5.70
2023-03-22T08:22:46.018Z,5.22
2023-03-22T08:25:18.883Z,5.00
2023-03-22T08:27:45.877Z,6.13
2023-03-22T08:30:14.862Z,5.30
2023-03-22T08:32:43.505Z,4.75
2023-03-22T08:35:12.237Z,5.20
2023-03-22T08:37:39.977Z,5.25
2023-03-22T08:40:09.856Z,5.50
2023-03-22T08:42:50.740Z,5.03
2023-03-22T08:45:18.347Z,4.75
2023-03-22T08:47:52.511Z,4.88
2023-03-22T08:50:23.767Z,4.93
2023-03-22T08:53:04.313Z,4.78
2023-03-22T08:55:37.912Z,4.85
2023-03-22T08:58:16.279Z,5.03
2023-03-22T09:01:12.576Z,3.92
2023-03-22T09:03:47.482Z,4.03
2023-03-22T09:06:14.957Z,3.65
2023-03-22T09:08:45.347Z,3.50
2023-03-22T09:11:17.315Z,4.18
2023-03-22T09:13:45.884Z,3.90
2023-03-22T09:16:12.902Z,3.53
2023-03-22T09:18:40.445Z,3.58
2023-03-22T09:21:14.988Z,3.00
2023-03-22T09:24:05.527Z,3.72
2023-03-22T09:26:46.049Z,3.30
2023-03-22T09:29:16.316Z,3.50
2023-03-22T09:31:44.513Z,3.78
2023-03-22T09:34:25.963Z,4.07
2023-03-22T09:36:52.844Z,3.05
2023-03-22T09:39:24.653Z,3.20
2023-03-22T09:42:01.893Z,2.72
2023-03-22T09:44:41.490Z,3.83
2023-03-22T09:47:17.794Z,3.42
2023-03-22T09:49:54.097Z,3.65
2023-03-22T09:52:21.522Z,3.05
2023-03-22T09:54:50.954Z,3.88
2023-03-22T09:57:37.264Z,3.55
2023-03-22T10:00:21.163Z,4.05
2023-03-22T10:02:52.235Z,3.03
2023-03-22T10:05:37.589Z,3.58
2023-03-22T10:08:17.917Z,3.80
2023-03-22T10:10:44.933Z,3.60
2023-03-22T10:13:13.721Z,3.38
2023-03-22T10:15:46.168Z,3.40
2023-03-22T10:18:26.938Z,3.22
2023-03-22T10:21:01.043Z,2.85
2023-03-22T10:23:44.274Z,3.28
2023-03-22T10:26:21.953Z,3.28
2023-03-22T10:29:19.608Z,3.67
2023-03-22T10:31:46.304Z,2.90
2023-03-22T10:34:29.684Z,3.00
2023-03-22T10:37:00.862Z,3.20
2023-03-22T10:39:41.258Z,3.10
2023-03-22T10:42:15.428Z,3.00
2023-03-22T10:44:49.567Z,3.00
2023-03-22T10:47:33.653Z,3.33
2023-03-22T10:50:04.815Z,3.00
2023-03-22T10:53:03.041Z,3.28
2023-03-22T10:55:30.606Z,2.85
2023-03-22T10:58:15.249Z,3.13
2023-03-22T11:00:59.537Z,3.00
2023-03-22T11:03:29.416Z,2.90
2023-03-22T11:06:17.827Z,2.90
2023-03-22T11:08:49.220Z,2.72
2023-03-22T11:11:23.761Z,2.67
2023-03-22T11:13:59.068Z,2.65
2023-03-22T11:16:26.599Z,3.17
2023-03-22T11:18:54.808Z,3.65
2023-03-22T11:21:28.841Z,3.53
2023-03-22T11:24:00.418Z,3.03
2023-03-22T11:26:40.506Z,2.55
2023-03-22T11:29:19.233Z,3.00
2023-03-22T11:31:58.225Z,2.80
2023-03-22T11:34:28.320Z,2.50
2023-03-22T11:36:58.521Z,2.70
2023-03-22T11:39:30.003Z,2.90
2023-03-22T11:42:01.170Z,3.17
2023-03-22T11:44:32.313Z,3.17
2023-03-22T11:47:01.656Z,2.60
2023-03-22T11:52:10.075Z,2.60
2023-03-22T11:54:39.892Z,2.05
2023-03-22T11:57:13.329Z,2.97
2023-03-22T11:59:48.328Z,2.50
2023-03-22T12:02:41.256Z,2.40
2023-03-22T12:05:18.923Z,2.20
2023-03-22T12:07:47.133Z,2.33
2023-03-22T12:10:25.386Z,2.15
2023-03-22T12:13:01.133Z,2.10
2023-03-22T12:15:33.565Z,2.33
2023-03-22T12:18:17.536Z,2.47
2023-03-22T12:20:59.349Z,1.90
2023-03-22T12:23:29.553Z,2.65
2023-03-22T12:26:01.858Z,1.50
2023-03-22T12:28:34.804Z,1.98
2023-03-22T12:31:03.995Z,2.33
2023-03-22T12:33:44.271Z,2.58
2023-03-22T12:36:17.198Z,2.65
2023-03-22T12:38:52.185Z,2.33
2023-03-22T12:41:40.627Z,2.15
2023-03-22T12:44:29.262Z,1.50
2023-03-22T12:47:07.842Z,1.63
2023-03-22T12:49:40.394Z,2.03
2023-03-22T12:52:46.183Z,1.63
2023-03-22T12:55:23.131Z,2.03
2023-03-22T12:57:52.456Z,2.08
2023-03-22T13:03:05.595Z,1.70
2023-03-22T13:05:34.664Z,1.90
2023-03-22T13:08:04.049Z,1.60
2023-03-22T13:10:31.217Z,1.50
2023-03-22T13:13:19.962Z,1.63
2023-03-22T13:15:56.152Z,1.40
2023-03-22T13:18:37.871Z,2.00
2023-03-22T13:21:17.583Z,1.85
2023-03-22T13:24:06.286Z,1.73
2023-03-22T13:26:54.532Z,1.98
2023-03-22T13:29:36.347Z,1.50
2023-03-22T13:32:06.680Z,1.55
2023-03-22T13:34:46.416Z,1.52
2023-03-22T13:37:45.573Z,1.90
2023-03-22T13:40:39.748Z,1.92
2023-03-22T13:43:28.354Z,1.50
2023-03-22T13:46:12.927Z,1.83
2023-03-22T13:48:50.654Z,1.80
2023-03-22T13:51:32.084Z,2.63
2023-03-22T13:54:03.531Z,3.03
2023-03-22T13:56:36.386Z,3.00
2023-03-22T13:59:04.885Z,4.47
2023-03-22T14:01:36.490Z,3.38
2023-03-22T14:04:14.141Z,2.20
2023-03-22T14:06:53.995Z,2.20
2023-03-22T14:09:32.440Z,2.47
2023-03-22T14:12:21.557Z,1.65
2023-03-22T14:14:58.225Z,2.08
2023-03-22T14:17:58.994Z,2.50
2023-03-22T14:20:30.681Z,1.60
